createdAt,value
2018-03-18T00:01:20.427Z,16.47
2018-03-18T00:03:47.773Z,15.57
2018-03-18T00:06:15.139Z,15.60
2018-03-18T00:08:42.480Z,15.10
2018-03-18T00:11:09.850Z,15.90
2018-03-18T00:13:37.192Z,17.57
2018-03-18T00:16:04.572Z,16.17
2018-03-18T00:18:31.916Z,15.07
2018-03-18T00:20:59.299Z,17.00
2018-03-18T00:23:26.658Z,17.00
2018-03-18T00:25:54.031Z,17.30
2018-03-18T00:28:21.391Z,16.73
2018-03-18T00:30:48.754Z,15.70
2018-03-18T00:33:16.116Z,17.98
2018-03-18T00:35:43.491Z,17.02
2018-03-18T00:38:10.852Z,16.35
2018-03-18T00:40:38.219Z,16.57
2018-03-18T00:43:05.614Z,17.70
2018-03-18T00:45:32.988Z,16.20
2018-03-18T00:48:00.331Z,16.77
2018-03-18T00:50:27.710Z,15.70
2018-03-18T00:52:55.051Z,14.80
2018-03-18T00:55:22.420Z,15.97
2018-03-18T00:57:49.758Z,16.60
2018-03-18T01:00:17.124Z,16.17
2018-03-18T01:02:44.468Z,16.40
2018-03-18T01:05:11.864Z,14.33
2018-03-18T01:07:39.220Z,16.80
2018-03-18T01:10:06.625Z,15.90
2018-03-18T01:12:34.073Z,16.80
2018-03-18T01:15:01.468Z,17.13
2018-03-18T01:17:28.851Z,15.30
2018-03-18T01:19:56.227Z,16.00
2018-03-18T01:22:23.590Z,16.47
2018-03-18T01:24:50.966Z,16.20
2018-03-18T01:27:18.322Z,16.60
2018-03-18T01:29:45.740Z,16.37
2018-03-18T01:32:13.222Z,15.27
2018-03-18T01:34:40.572Z,16.27
2018-03-18T01:37:07.996Z,15.80
2018-03-18T01:39:35.347Z,16.17
2018-03-18T01:42:02.774Z,15.47
2018-03-18T01:44:30.144Z,14.80
2018-03-18T01:46:57.532Z,15.50
2018-03-18T01:49:24.881Z,15.50
2018-03-18T01:51:52.291Z,14.87
2018-03-18T01:54:19.664Z,15.10
2018-03-18T01:56:47.084Z,15.97
2018-03-18T01:59:15.394Z,15.97
2018-03-18T02:01:42.802Z,15.67
2018-03-18T02:04:10.145Z,14.10
2018-03-18T02:06:37.517Z,13.37
2018-03-18T02:09:04.911Z,15.53
2018-03-18T02:11:32.307Z,15.60
2018-03-18T02:13:59.673Z,14.07
2018-03-18T02:16:27.039Z,13.73
2018-03-18T02:18:54.381Z,12.93
2018-03-18T02:21:21.756Z,14.60
2018-03-18T02:23:49.125Z,14.13
2018-03-18T02:26:16.502Z,16.13
2018-03-18T02:28:43.853Z,15.47
2018-03-18T02:31:11.246Z,13.87
2018-03-18T02:33:38.621Z,15.57
2018-03-18T02:36:05.991Z,14.60
2018-03-18T02:38:33.367Z,14.47
2018-03-18T02:41:00.788Z,15.20
2018-03-18T02:43:28.144Z,15.33
2018-03-18T02:45:55.506Z,15.37
2018-03-18T02:48:22.864Z,13.90
2018-03-18T02:50:50.305Z,14.63
2018-03-18T02:53:17.655Z,15.40
2018-03-18T02:55:45.121Z,16.07
2018-03-18T02:58:12.473Z,14.97
2018-03-18T03:00:39.816Z,13.80
2018-03-18T03:03:07.203Z,14.20
2018-03-18T03:05:34.593Z,15.00
2018-03-18T03:08:02.099Z,14.70
2018-03-18T03:10:29.486Z,13.17
2018-03-18T03:12:56.861Z,13.50
2018-03-18T03:15:24.228Z,14.90
2018-03-18T03:17:51.631Z,14.00
2018-03-18T03:20:19.004Z,12.43
2018-03-18T03:22:46.412Z,14.50
2018-03-18T03:25:13.818Z,15.20
2018-03-18T03:27:41.185Z,14.10
2018-03-18T03:30:08.607Z,14.13
2018-03-18T03:32:36.003Z,13.33
2018-03-18T03:35:03.366Z,14.17
2018-03-18T03:37:30.750Z,14.40
2018-03-18T03:39:58.148Z,14.10
2018-03-18T03:42:25.524Z,13.00
2018-03-18T03:44:52.934Z,14.33
2018-03-18T03:47:20.392Z,12.90
2018-03-18T03:49:47.731Z,13.77
2018-03-18T03:52:15.127Z,14.90
2018-03-18T03:54:42.491Z,14.97
2018-03-18T03:57:09.915Z,13.87
2018-03-18T03:59:37.271Z,13.43
2018-03-18T04:02:04.693Z,12.63
2018-03-18T04:04:32.040Z,14.00
2018-03-18T04:06:59.414Z,14.23
2018-03-18T04:09:26.798Z,13.80
2018-03-18T04:11:54.196Z,13.43
2018-03-18T04:14:21.592Z,13.87
2018-03-18T04:16:49.039Z,13.60
2018-03-18T04:19:16.383Z,13.40
2018-03-18T04:21:43.777Z,13.20
2018-03-18T04:24:11.128Z,12.67
2018-03-18T04:26:38.508Z,13.77
2018-03-18T04:29:05.854Z,15.53
2018-03-18T04:31:33.223Z,13.80
2018-03-18T04:34:00.638Z,13.20
2018-03-18T04:36:27.997Z,12.60
2018-03-18T04:38:55.370Z,13.13
2018-03-18T04:41:22.820Z,13.33
2018-03-18T04:43:50.205Z,12.40
2018-03-18T04:46:17.736Z,14.77
2018-03-18T04:48:45.179Z,14.60
2018-03-18T04:51:12.636Z,13.17
2018-03-18T04:53:40.019Z,13.47
2018-03-18T04:56:07.402Z,12.83
2018-03-18T04:58:34.769Z,16.30
2018-03-18T05:01:02.130Z,14.23
2018-03-18T05:03:29.540Z,13.10
2018-03-18T05:05:56.936Z,13.63
2018-03-18T05:08:24.304Z,14.80
2018-03-18T05:10:51.682Z,13.50
2018-03-18T05:13:19.088Z,12.90
2018-03-18T05:15:46.492Z,14.47
2018-03-18T05:18:13.967Z,14.53
2018-03-18T05:20:41.307Z,14.70
2018-03-18T05:23:08.686Z,13.40
2018-03-18T05:25:36.029Z,14.33
2018-03-18T05:28:03.425Z,14.07
2018-03-18T05:30:30.827Z,13.47
2018-03-18T05:32:58.236Z,13.70
2018-03-18T05:35:25.599Z,14.37
2018-03-18T05:37:52.990Z,14.97
2018-03-18T05:40:20.381Z,13.33
2018-03-18T05:42:47.792Z,13.57
2018-03-18T05:45:15.142Z,14.80
2018-03-18T05:47:42.536Z,14.73
2018-03-18T05:50:09.891Z,13.47
2018-03-18T05:52:37.275Z,14.43
2018-03-18T05:55:04.663Z,12.30
2018-03-18T05:57:32.134Z,12.57
2018-03-18T05:59:59.481Z,13.83
2018-03-18T06:02:26.878Z,12.93
2018-03-18T06:04:54.234Z,13.70
2018-03-18T06:07:21.600Z,14.50
2018-03-18T06:09:48.997Z,13.00
2018-03-18T06:12:16.345Z,14.17
2018-03-18T06:14:43.728Z,15.10
2018-03-18T06:17:11.067Z,13.63
2018-03-18T06:19:38.464Z,13.67
2018-03-18T06:22:05.841Z,12.97
2018-03-18T06:24:33.230Z,13.97
2018-03-18T06:27:00.603Z,13.27
2018-03-18T06:29:28.022Z,13.63
2018-03-18T06:31:55.382Z,15.53
2018-03-18T06:34:22.756Z,13.90
2018-03-18T06:36:50.120Z,13.10
2018-03-18T06:39:17.532Z,11.83
2018-03-18T06:41:44.895Z,16.43
2018-03-18T06:44:12.296Z,14.73
2018-03-18T06:46:39.656Z,16.40
2018-03-18T06:49:07.053Z,12.00
2018-03-18T06:51:34.425Z,12.87
2018-03-18T06:54:01.832Z,12.90
2018-03-18T06:56:29.186Z,13.20
2018-03-18T06:58:56.565Z,12.67
2018-03-18T07:01:23.906Z,12.20
2018-03-18T07:03:51.350Z,11.63
2018-03-18T07:06:18.705Z,12.33
2018-03-18T07:08:46.134Z,10.63
2018-03-18T07:11:13.478Z,12.03
2018-03-18T07:13:40.854Z,12.23
2018-03-18T07:16:08.257Z,11.83
2018-03-18T07:18:35.670Z,11.53
2018-03-18T07:21:03.033Z,11.00
2018-03-18T07:23:30.430Z,12.00
2018-03-18T07:25:57.794Z,11.00
2018-03-18T07:28:25.205Z,10.00
2018-03-18T07:30:52.585Z,10.23
2018-03-18T07:33:20.092Z,10.27
2018-03-18T07:35:47.437Z,10.67
2018-03-18T07:38:14.797Z,10.30
2018-03-18T07:40:42.176Z,10.30
2018-03-18T07:43:09.892Z,11.20
2018-03-18T07:45:37.380Z,11.43
2018-03-18T07:48:04.753Z,10.33
2018-03-18T07:50:32.164Z,12.40
2018-03-18T07:52:59.526Z,11.37
2018-03-18T07:55:26.910Z,10.37
2018-03-18T07:57:54.258Z,11.97
2018-03-18T08:00:21.623Z,10.00
2018-03-18T08:02:48.975Z,10.07
2018-03-18T08:05:16.356Z,10.70
2018-03-18T08:07:43.730Z,10.27
2018-03-18T08:10:11.116Z,12.10
2018-03-18T08:12:38.462Z,10.57
2018-03-18T08:15:05.831Z,11.23
2018-03-18T08:17:33.204Z,10.60
2018-03-18T08:20:00.572Z,11.93
2018-03-18T08:22:27.965Z,10.43
2018-03-18T08:24:55.376Z,11.47
2018-03-18T08:27:22.726Z,10.50
2018-03-18T08:29:50.117Z,10.07
2018-03-18T08:32:17.460Z,10.93
2018-03-18T08:34:44.857Z,11.03
2018-03-18T08:37:12.213Z,11.20
2018-03-18T08:39:39.587Z,11.20
2018-03-18T08:42:06.938Z,10.83
2018-03-18T08:44:34.354Z,10.57
2018-03-18T08:47:01.703Z,11.80
2018-03-18T08:49:29.086Z,10.37
2018-03-18T08:51:56.456Z,11.83
2018-03-18T08:54:23.831Z,11.60
2018-03-18T08:56:51.281Z,10.77
2018-03-18T08:59:18.663Z,11.57
2018-03-18T09:01:46.058Z,11.50
2018-03-18T09:04:13.440Z,10.03
2018-03-18T09:06:40.819Z,10.90
2018-03-18T09:09:08.171Z,11.43
2018-03-18T09:11:35.538Z,11.03
2018-03-18T09:14:02.887Z,10.70
2018-03-18T09:16:30.375Z,10.90
2018-03-18T09:18:58.008Z,12.03
2018-03-18T09:21:25.379Z,12.30
2018-03-18T09:23:52.724Z,11.60
2018-03-18T09:26:20.149Z,11.00
2018-03-18T09:28:47.497Z,11.27
2018-03-18T09:31:14.865Z,11.80
2018-03-18T09:33:42.215Z,10.47
2018-03-18T09:36:09.592Z,11.23
2018-03-18T09:38:36.943Z,11.23
2018-03-18T09:41:04.328Z,11.40
2018-03-18T09:43:31.673Z,13.03
2018-03-18T09:45:59.014Z,11.60
2018-03-18T09:48:26.378Z,10.20
2018-03-18T09:50:53.730Z,11.00
2018-03-18T09:53:21.098Z,10.97
2018-03-18T09:55:48.434Z,11.00
2018-03-18T09:58:15.799Z,10.20
2018-03-18T10:00:43.166Z,11.80
2018-03-18T10:03:10.544Z,11.00
2018-03-18T10:05:37.888Z,12.00
2018-03-18T10:08:05.341Z,10.80
2018-03-18T10:10:32.785Z,12.43
2018-03-18T10:13:00.236Z,10.50
2018-03-18T10:15:27.761Z,11.53
2018-03-18T10:17:55.219Z,12.00
2018-03-18T10:20:22.752Z,12.10
2018-03-18T10:22:50.069Z,11.70
2018-03-18T10:25:17.450Z,11.77
2018-03-18T10:27:44.943Z,11.90
2018-03-18T10:30:12.372Z,10.87
2018-03-18T10:32:40.106Z,11.30
2018-03-18T10:35:07.634Z,11.97
2018-03-18T10:37:35.067Z,10.60
2018-03-18T10:40:02.448Z,11.33
2018-03-18T10:42:29.846Z,12.40
2018-03-18T10:44:57.243Z,11.67
2018-03-18T10:47:24.607Z,11.00
2018-03-18T10:49:51.971Z,10.70
2018-03-18T10:52:19.340Z,11.40
2018-03-18T10:54:46.682Z,10.40
2018-03-18T10:57:14.095Z,11.53
2018-03-18T10:59:41.455Z,9.67
2018-03-18T11:02:20.563Z,11.30
2018-03-18T11:04:48.424Z,12.00
2018-03-18T11:07:15.790Z,9.77
2018-03-18T11:09:43.132Z,9.77
2018-03-18T11:12:10.565Z,10.53
2018-03-18T11:14:37.944Z,9.90
2018-03-18T11:17:05.286Z,10.90
2018-03-18T11:19:32.666Z,10.97
2018-03-18T11:22:00.012Z,10.70
2018-03-18T11:24:27.389Z,11.13
2018-03-18T11:26:54.947Z,10.50
2018-03-18T11:29:22.312Z,11.90
2018-03-18T11:31:49.656Z,10.67
2018-03-18T11:34:23.015Z,12.40
2018-03-18T11:36:50.432Z,11.33
2018-03-18T11:39:19.555Z,10.77
2018-03-18T11:41:46.900Z,10.97
2018-03-18T11:44:14.450Z,11.30
2018-03-18T11:46:41.801Z,10.80
2018-03-18T11:49:09.165Z,11.50
2018-03-18T11:51:36.518Z,11.07
2018-03-18T11:54:03.881Z,11.77
2018-03-18T11:56:31.257Z,11.43
2018-03-18T11:58:58.635Z,12.33
2018-03-18T12:01:25.999Z,12.83
2018-03-18T12:03:53.399Z,12.27
2018-03-18T12:06:20.746Z,12.70
2018-03-18T12:09:01.100Z,12.23
2018-03-18T12:11:28.469Z,12.43
2018-03-18T12:13:56.019Z,11.23
2018-03-18T12:16:23.375Z,2.77
2018-03-18T12:18:50.742Z,3.53
2018-03-18T12:21:18.082Z,2.60
2018-03-18T12:23:45.403Z,2.93
2018-03-18T12:26:12.777Z,10.27
2018-03-18T12:28:40.115Z,11.50
2018-03-18T12:31:07.483Z,11.47
2018-03-18T12:33:34.823Z,14.60
2018-03-18T12:36:02.200Z,14.30
2018-03-18T12:38:29.659Z,12.40
2018-03-18T12:40:57.066Z,12.10
2018-03-18T12:43:27.345Z,13.40
2018-03-18T12:45:54.718Z,12.07
2018-03-18T12:48:22.054Z,11.20
2018-03-18T12:50:49.428Z,10.40
2018-03-18T12:53:16.794Z,12.00
2018-03-18T12:55:44.201Z,11.97
2018-03-18T12:58:11.538Z,9.97
2018-03-18T13:00:38.900Z,9.90
2018-03-18T13:03:06.280Z,12.77
2018-03-18T13:05:33.651Z,9.17
2018-03-18T13:08:00.998Z,8.30
2018-03-18T13:10:28.364Z,8.67
2018-03-18T13:12:55.772Z,10.00
2018-03-18T13:15:23.144Z,10.70
2018-03-18T13:17:50.483Z,11.17
2018-03-18T13:20:17.848Z,9.10
2018-03-18T13:22:45.185Z,8.87
2018-03-18T13:25:12.580Z,10.30
2018-03-18T13:27:39.919Z,7.00
2018-03-18T13:30:07.294Z,10.20
2018-03-18T13:32:34.680Z,7.70
2018-03-18T13:35:02.248Z,10.10
2018-03-18T13:37:29.735Z,6.97
2018-03-18T13:39:57.111Z,12.23
2018-03-18T13:42:24.455Z,11.40
2018-03-18T13:44:51.793Z,9.13
2018-03-18T13:47:19.159Z,9.13
2018-03-18T13:49:47.670Z,9.97
2018-03-18T13:52:15.038Z,10.80
2018-03-18T13:54:42.390Z,6.27
2018-03-18T13:57:10.462Z,9.73
2018-03-18T13:59:37.805Z,10.20
2018-03-18T14:02:05.221Z,7.30
2018-03-18T14:04:32.612Z,8.80
2018-03-18T14:06:59.972Z,9.83
2018-03-18T14:09:27.308Z,9.17
2018-03-18T14:11:54.681Z,10.70
2018-03-18T14:14:22.026Z,9.80
2018-03-18T14:16:49.400Z,12.00
2018-03-18T14:19:16.731Z,6.30
2018-03-18T14:21:44.083Z,6.73
2018-03-18T14:24:11.426Z,9.13
2018-03-18T14:26:38.795Z,10.90
2018-03-18T14:29:06.140Z,10.93
2018-03-18T14:31:33.522Z,5.70
2018-03-18T14:34:00.857Z,3.03
2018-03-18T14:36:28.474Z,9.70
2018-03-18T14:38:56.316Z,9.97
2018-03-18T14:41:24.169Z,9.40
2018-03-18T14:43:52.294Z,6.13
2018-03-18T14:46:19.969Z,9.87
2018-03-18T14:48:47.478Z,10.43
2018-03-18T14:51:15.428Z,7.87
2018-03-18T14:53:43.427Z,10.53
2018-03-18T14:56:11.088Z,9.13
2018-03-18T14:58:38.891Z,10.47
2018-03-18T15:01:06.690Z,9.60
2018-03-18T15:03:34.865Z,9.30
2018-03-18T15:06:04.121Z,10.80
2018-03-18T15:08:32.134Z,11.13
2018-03-18T15:10:59.946Z,9.20
2018-03-18T15:13:27.969Z,8.60
2018-03-18T15:15:58.255Z,9.37
2018-03-18T15:18:26.063Z,9.43
2018-03-18T15:20:55.832Z,10.93
2018-03-18T15:23:25.617Z,10.07
2018-03-18T15:25:53.760Z,10.93
2018-03-18T15:28:21.651Z,9.60
2018-03-18T15:30:49.176Z,11.33
2018-03-18T15:33:16.821Z,10.57
2018-03-18T15:35:44.623Z,10.17
2018-03-18T15:38:13.093Z,11.30
2018-03-18T15:40:40.923Z,9.43
2018-03-18T15:43:08.828Z,10.03
2018-03-18T15:45:36.792Z,11.70
2018-03-18T15:48:04.931Z,10.07
2018-03-18T15:50:32.736Z,8.70
2018-03-18T15:53:00.597Z,10.60
2018-03-18T15:55:28.266Z,10.73
2018-03-18T15:57:55.981Z,12.43
2018-03-18T16:00:23.894Z,11.57
2018-03-18T16:02:51.963Z,13.70
2018-03-18T16:05:19.852Z,10.83
2018-03-18T16:07:48.110Z,11.70
2018-03-18T16:10:15.892Z,11.10
2018-03-18T16:12:43.724Z,10.17
2018-03-18T16:15:11.324Z,10.73
2018-03-18T16:17:39.057Z,10.90
2018-03-18T16:20:06.616Z,11.23
2018-03-18T16:22:34.124Z,9.33
2018-03-18T16:25:01.739Z,10.20
2018-03-18T16:27:29.320Z,10.80
2018-03-18T16:30:02.661Z,10.77
2018-03-18T16:32:30.376Z,11.10
2018-03-18T16:34:58.224Z,8.13
2018-03-18T16:37:25.994Z,9.73
2018-03-18T16:39:54.168Z,11.50
2018-03-18T16:42:22.090Z,10.27
2018-03-18T16:44:49.806Z,11.50
2018-03-18T16:47:17.558Z,9.33
2018-03-18T16:49:45.160Z,10.53
2018-03-18T16:52:12.747Z,11.03
2018-03-18T16:54:40.544Z,10.07
2018-03-18T16:57:08.449Z,10.07
2018-03-18T16:59:35.969Z,10.07
2018-03-18T17:02:03.840Z,10.20
2018-03-18T17:04:31.872Z,9.93
2018-03-18T17:06:59.530Z,5.67
2018-03-18T17:09:27.248Z,10.27
2018-03-18T17:11:54.765Z,9.27
2018-03-18T17:14:22.237Z,8.80
2018-03-18T17:16:50.323Z,9.50
2018-03-18T17:19:18.086Z,10.37
2018-03-18T17:21:45.868Z,9.10
2018-03-18T17:24:13.791Z,9.70
2018-03-18T17:26:41.275Z,9.90
2018-03-18T17:29:09.031Z,10.50
2018-03-18T17:31:36.537Z,9.00
2018-03-18T17:34:03.992Z,10.93
2018-03-18T17:36:31.375Z,10.10
2018-03-18T17:38:58.728Z,9.13
2018-03-18T17:41:26.070Z,10.63
2018-03-18T17:43:53.438Z,10.30
2018-03-18T17:46:26.851Z,10.07
2018-03-18T17:49:00.137Z,10.63
2018-03-18T17:51:33.431Z,10.40
2018-03-18T17:54:16.505Z,10.37
2018-03-18T17:56:43.850Z,9.20
2018-03-18T17:59:11.222Z,11.20
2018-03-18T18:01:38.579Z,9.50
2018-03-18T18:04:06.208Z,6.47
2018-03-18T18:06:33.803Z,10.73
2018-03-18T18:09:01.159Z,10.60
2018-03-18T18:11:28.585Z,10.50
2018-03-18T18:13:56.045Z,9.43
2018-03-18T18:16:23.416Z,11.10
2018-03-18T18:18:50.762Z,11.00
2018-03-18T18:21:18.132Z,10.00
2018-03-18T18:23:45.502Z,10.37
2018-03-18T18:26:12.872Z,11.13
2018-03-18T18:28:40.210Z,10.97
2018-03-18T18:31:07.581Z,9.70
2018-03-18T18:33:34.934Z,11.17
2018-03-18T18:36:02.349Z,10.53
2018-03-18T18:38:29.694Z,11.37
2018-03-18T18:40:57.061Z,10.50
2018-03-18T18:43:24.430Z,10.10
2018-03-18T18:45:51.813Z,12.00
2018-03-18T18:48:19.181Z,10.70
2018-03-18T18:50:46.601Z,10.20
2018-03-18T18:53:13.956Z,10.80
2018-03-18T18:55:47.624Z,10.90
2018-03-18T18:58:15.045Z,11.43
2018-03-18T19:00:42.644Z,10.10
2018-03-18T19:03:10.048Z,12.93
2018-03-18T19:05:37.429Z,13.47
2018-03-18T19:08:04.767Z,10.47
2018-03-18T19:10:32.152Z,11.20
2018-03-18T19:12:59.495Z,9.53
2018-03-18T19:15:26.840Z,12.20
2018-03-18T19:17:54.209Z,10.20
2018-03-18T19:20:21.547Z,12.23
2018-03-18T19:22:49.018Z,11.20
2018-03-18T19:25:16.384Z,12.60
2018-03-18T19:27:43.757Z,10.90
2018-03-18T19:30:11.108Z,11.30
2018-03-18T19:32:38.479Z,12.33
2018-03-18T19:35:05.819Z,11.77
2018-03-18T19:37:33.192Z,11.83
2018-03-18T19:40:00.626Z,10.90
2018-03-18T19:42:27.990Z,11.37
2018-03-18T19:44:55.343Z,10.73
2018-03-18T19:47:22.705Z,10.33
2018-03-18T19:49:50.049Z,11.07
2018-03-18T19:52:17.420Z,11.77
2018-03-18T19:54:44.759Z,12.53
2018-03-18T19:57:12.139Z,12.30
2018-03-18T19:59:39.483Z,10.73
2018-03-18T20:02:06.923Z,10.70
2018-03-18T20:04:34.280Z,9.90
2018-03-18T20:07:01.652Z,11.80
2018-03-18T20:09:29.007Z,10.90
2018-03-18T20:11:56.410Z,10.73
2018-03-18T20:14:23.760Z,12.10
2018-03-18T20:16:51.128Z,11.73
2018-03-18T20:19:18.472Z,11.23
2018-03-18T20:21:45.842Z,12.13
2018-03-18T20:24:13.181Z,10.43
2018-03-18T20:26:40.600Z,9.87
2018-03-18T20:29:07.941Z,11.40
2018-03-18T20:31:35.315Z,10.83
2018-03-18T20:34:02.660Z,10.40
2018-03-18T20:36:30.032Z,11.13
2018-03-18T20:38:57.372Z,11.90
2018-03-18T20:41:24.711Z,11.00
2018-03-18T20:43:52.079Z,10.40
2018-03-18T20:46:19.434Z,10.83
2018-03-18T20:48:46.800Z,11.03
2018-03-18T20:51:14.143Z,10.40
2018-03-18T20:53:41.514Z,10.60
2018-03-18T20:56:08.936Z,10.17
2018-03-18T20:58:36.309Z,10.87
2018-03-18T21:01:03.655Z,11.90
2018-03-18T21:03:31.179Z,11.20
2018-03-18T21:05:58.518Z,11.50
2018-03-18T21:08:25.888Z,13.23
2018-03-18T21:10:53.233Z,12.60
2018-03-18T21:13:21.031Z,11.77
2018-03-18T21:15:48.467Z,10.77
2018-03-18T21:18:15.880Z,10.43
2018-03-18T21:20:43.366Z,12.60
2018-03-18T21:23:10.740Z,11.43
2018-03-18T21:25:38.102Z,13.13
2018-03-18T21:28:05.582Z,12.30
2018-03-18T21:30:32.926Z,11.03
2018-03-18T21:33:00.304Z,12.30
2018-03-18T21:35:27.643Z,11.50
2018-03-18T21:37:55.057Z,10.43
2018-03-18T21:40:22.410Z,12.10
2018-03-18T21:42:49.787Z,10.40
2018-03-18T21:45:17.131Z,10.87
2018-03-18T21:47:44.521Z,11.50
2018-03-18T21:50:11.866Z,11.37
2018-03-18T21:52:39.239Z,11.73
2018-03-18T21:55:06.577Z,12.80
2018-03-18T21:57:33.948Z,11.70
2018-03-18T22:00:01.340Z,11.63
2018-03-18T22:02:28.769Z,10.90
2018-03-18T22:04:56.230Z,11.43
2018-03-18T22:07:25.255Z,12.70
2018-03-18T22:09:52.667Z,12.33
2018-03-18T22:12:20.209Z,11.50
2018-03-18T22:14:48.055Z,11.73
2018-03-18T22:17:15.513Z,10.63
2018-03-18T22:19:42.892Z,11.13
2018-03-18T22:22:10.239Z,11.93
2018-03-18T22:24:37.616Z,11.87
2018-03-18T22:27:04.963Z,11.50
2018-03-18T22:29:32.352Z,12.50
2018-03-18T22:31:59.700Z,13.70
2018-03-18T22:34:27.066Z,13.43
2018-03-18T22:36:54.416Z,13.10
2018-03-18T22:39:21.787Z,12.10
2018-03-18T22:41:49.147Z,13.80
2018-03-18T22:44:16.533Z,12.73
2018-03-18T22:46:43.882Z,12.77
2018-03-18T22:49:11.257Z,13.93
2018-03-18T22:51:38.602Z,12.03
2018-03-18T22:54:05.979Z,13.10
2018-03-18T22:56:33.324Z,12.63
2018-03-18T22:59:00.687Z,13.60
2018-03-18T23:01:28.028Z,11.60
2018-03-18T23:03:55.417Z,13.23
2018-03-18T23:06:22.783Z,13.03
2018-03-18T23:08:50.150Z,12.40
2018-03-18T23:11:17.492Z,13.10
2018-03-18T23:13:44.888Z,13.37
2018-03-18T23:16:12.245Z,12.67
2018-03-18T23:18:39.624Z,13.37
2018-03-18T23:21:07.000Z,14.30
2018-03-18T23:23:34.375Z,14.07
2018-03-18T23:26:01.711Z,14.17
2018-03-18T23:28:29.087Z,13.17
2018-03-18T23:30:56.433Z,11.60
2018-03-18T23:33:23.805Z,12.97
2018-03-18T23:35:51.150Z,12.90
2018-03-18T23:38:18.766Z,13.20
2018-03-18T23:40:46.152Z,13.25
2018-03-18T23:43:13.497Z,12.43
2018-03-18T23:45:40.909Z,12.88
2018-03-18T23:48:08.257Z,13.63
2018-03-18T23:50:35.633Z,13.43
2018-03-18T23:53:02.971Z,13.20
2018-03-18T23:55:30.377Z,12.70
2018-03-18T23:57:57.729Z,13.17
